createdAt,value
2023-04-16T00:00:56.975Z,101895.06
2023-04-16T00:03:25.130Z,101887.44
2023-04-16T00:05:55.696Z,101894.78
2023-04-16T00:08:25.629Z,101893.84
2023-04-16T00:10:54.499Z,101898.28
2023-04-16T00:13:22.614Z,101888.56
2023-04-16T00:15:50.556Z,101884.84
2023-04-16T00:18:18.310Z,101881.38
2023-04-16T00:20:46.168Z,101870.59
2023-04-16T00:23:13.876Z,101874.44
2023-04-16T00:25:43.046Z,101870.38
2023-04-16T00:28:11.224Z,101866.75
2023-04-16T00:30:39.138Z,101869.19
2023-04-16T00:33:06.986Z,101864.88
2023-04-16T00:35:35.850Z,101858.94
2023-04-16T00:38:03.938Z,101863.81
2023-04-16T00:40:32.008Z,101859.97
2023-04-16T00:43:01.208Z,101868.25
2023-04-16T00:45:28.950Z,101863.66
2023-04-16T00:47:59.297Z,101867.81
2023-04-16T00:50:28.595Z,101866.00
2023-04-16T00:52:58.035Z,101868.69
2023-04-16T00:55:26.054Z,101871.03
2023-04-16T00:57:54.493Z,101865.34
2023-04-16T01:00:23.849Z,101869.47
2023-04-16T01:02:51.650Z,101863.47
2023-04-16T01:05:20.391Z,101858.03
2023-04-16T01:07:48.063Z,101858.75
2023-04-16T01:10:15.936Z,101872.16
2023-04-16T01:12:43.864Z,101864.63
2023-04-16T01:15:12.277Z,101871.03
2023-04-16T01:17:41.810Z,101871.56
2023-04-16T01:20:10.280Z,101869.44
2023-04-16T01:22:39.316Z,101867.75
2023-04-16T01:25:07.405Z,101868.66
2023-04-16T01:27:35.071Z,101861.88
2023-04-16T01:30:02.912Z,101874.94
2023-04-16T01:32:41.444Z,101870.28
2023-04-16T01:35:09.254Z,101867.66
2023-04-16T01:37:36.961Z,101866.75
2023-04-16T01:40:07.085Z,101866.34
2023-04-16T01:42:35.208Z,101862.78
2023-04-16T01:45:03.154Z,101875.41
2023-04-16T01:47:30.879Z,101881.66
2023-04-16T01:50:00.514Z,101871.50
2023-04-16T01:52:28.417Z,101873.22
2023-04-16T01:54:56.612Z,101877.63
2023-04-16T01:57:25.966Z,101879.44
2023-04-16T01:59:54.225Z,101870.34
2023-04-16T02:02:27.885Z,101877.53
2023-04-16T02:04:57.309Z,101859.16
2023-04-16T02:07:25.722Z,101861.88
2023-04-16T02:09:53.460Z,101859.38
2023-04-16T02:12:21.645Z,101864.81
2023-04-16T02:14:50.826Z,101862.69
2023-04-16T02:17:19.597Z,101854.03
2023-04-16T02:19:50.400Z,101863.16
2023-04-16T02:22:19.238Z,101860.63
2023-04-16T02:24:47.142Z,101863.16
2023-04-16T02:27:14.919Z,101860.94
2023-04-16T02:29:43.036Z,101859.31
2023-04-16T02:32:16.999Z,101859.31
2023-04-16T02:34:46.727Z,101864.28
2023-04-16T02:37:16.427Z,101852.56
2023-04-16T02:39:45.001Z,101853.56
2023-04-16T02:42:15.627Z,101852.16
2023-04-16T02:44:43.402Z,101846.28
2023-04-16T02:47:11.161Z,101845.53
2023-04-16T02:49:40.602Z,101838.69
2023-04-16T02:52:08.395Z,101835.56
2023-04-16T02:54:36.186Z,101833.25
2023-04-16T02:57:04.353Z,101824.25
2023-04-16T02:59:32.418Z,101824.16
2023-04-16T03:02:00.570Z,101813.13
2023-04-16T03:04:28.389Z,101808.41
2023-04-16T03:06:57.473Z,101805.63
2023-04-16T03:09:25.268Z,101807.91
2023-04-16T03:11:53.069Z,101806.31
2023-04-16T03:14:21.411Z,101800.19
2023-04-16T03:16:49.181Z,101793.56
2023-04-16T03:19:16.993Z,101793.47
2023-04-16T03:21:44.690Z,101790.66
2023-04-16T03:24:13.747Z,101785.81
2023-04-16T03:26:41.517Z,101791.94
2023-04-16T03:29:10.518Z,101785.97
2023-04-16T03:31:38.762Z,101789.09
2023-04-16T03:34:06.850Z,101781.88
2023-04-16T03:36:35.494Z,101788.94
2023-04-16T03:39:03.302Z,101781.75
2023-04-16T03:41:33.050Z,101768.34
2023-04-16T03:44:01.585Z,101776.84
2023-04-16T03:46:31.029Z,101762.03
2023-04-16T03:48:58.740Z,101766.59
2023-04-16T03:51:27.078Z,101765.13
2023-04-16T03:53:54.977Z,101770.22
2023-04-16T03:56:22.921Z,101756.34
2023-04-16T03:58:53.763Z,101758.34
2023-04-16T04:01:21.687Z,101758.09
2023-04-16T04:03:50.465Z,101753.75
2023-04-16T04:06:18.528Z,101755.78
2023-04-16T04:08:46.698Z,101765.75
2023-04-16T04:11:15.758Z,101766.56
2023-04-16T04:13:44.801Z,101762.13
2023-04-16T04:16:14.453Z,101770.28
2023-04-16T04:18:44.665Z,101766.19
2023-04-16T04:21:12.759Z,101763.25
2023-04-16T04:23:41.575Z,101758.00
2023-04-16T04:26:10.068Z,101758.75
2023-04-16T04:28:37.876Z,101759.31
2023-04-16T04:31:06.208Z,101764.38
2023-04-16T04:33:35.400Z,101763.47
2023-04-16T04:36:03.486Z,101764.19
2023-04-16T04:38:32.138Z,101780.19
2023-04-16T04:41:00.266Z,101778.78
2023-04-16T04:43:30.795Z,101794.53
2023-04-16T04:45:58.497Z,101793.78
2023-04-16T04:48:28.416Z,101789.00
2023-04-16T04:50:57.772Z,101792.84
2023-04-16T04:53:25.973Z,101800.84
2023-04-16T04:55:57.488Z,101803.53
2023-04-16T04:58:33.916Z,101813.47
2023-04-16T05:01:01.767Z,101809.16
2023-04-16T05:03:30.140Z,101813.56
2023-04-16T05:05:59.246Z,101814.47
2023-04-16T05:08:27.001Z,101816.81
2023-04-16T05:10:54.861Z,101809.56
2023-04-16T05:13:22.718Z,101813.06
2023-04-16T05:15:50.391Z,101820.41
2023-04-16T05:18:18.070Z,101830.47
2023-04-16T05:20:46.087Z,101820.16
2023-04-16T05:23:15.594Z,101818.28
2023-04-16T05:25:43.241Z,101833.25
2023-04-16T05:28:11.065Z,101830.63
2023-04-16T05:30:39.284Z,101834.69
2023-04-16T05:33:07.047Z,101835.94
2023-04-16T05:35:35.053Z,101846.13
2023-04-16T05:38:04.679Z,101843.69
2023-04-16T05:40:34.128Z,101855.66
2023-04-16T05:43:01.891Z,101868.59
2023-04-16T05:45:29.689Z,101876.00
2023-04-16T05:47:57.599Z,101879.72
2023-04-16T05:50:25.390Z,101889.84
2023-04-16T05:52:53.333Z,101903.03
2023-04-16T05:55:21.052Z,101910.16
2023-04-16T05:57:50.147Z,101903.25
2023-04-16T06:00:18.143Z,101903.25
2023-04-16T06:02:46.038Z,101912.47
2023-04-16T06:05:13.918Z,101923.81
2023-04-16T06:07:41.608Z,101928.50
2023-04-16T06:10:10.247Z,101929.91
2023-04-16T06:12:38.265Z,101920.75
2023-04-16T06:15:09.134Z,101931.06
2023-04-16T06:17:37.269Z,101929.53
2023-04-16T06:20:05.907Z,101927.97
2023-04-16T06:22:33.950Z,101931.31
2023-04-16T06:25:01.732Z,101934.19
2023-04-16T06:27:29.641Z,101940.06
2023-04-16T06:29:58.084Z,101943.38
2023-04-16T06:32:27.324Z,101943.56
2023-04-16T06:34:56.229Z,101933.34
2023-04-16T06:37:23.985Z,101938.03
2023-04-16T06:39:51.713Z,101942.25
2023-04-16T06:42:21.693Z,101940.63
2023-04-16T06:44:49.377Z,101938.03
2023-04-16T06:47:17.525Z,101940.88
2023-04-16T06:49:46.989Z,101941.84
2023-04-16T06:52:15.076Z,101944.91
2023-04-16T06:54:42.790Z,101934.22
2023-04-16T06:57:11.432Z,101934.44
2023-04-16T06:59:39.531Z,101925.69
2023-04-16T07:02:09.221Z,101917.00
2023-04-16T07:04:36.939Z,101912.66
2023-04-16T07:07:06.125Z,101913.47
2023-04-16T07:09:33.987Z,101910.13
2023-04-16T07:12:01.987Z,101891.28
2023-04-16T07:14:30.351Z,101896.41
2023-04-16T07:16:58.471Z,101905.31
2023-04-16T07:19:30.408Z,101886.91
2023-04-16T07:21:58.202Z,101880.91
2023-04-16T07:24:27.541Z,101877.34
2023-04-16T07:26:55.779Z,101878.03
2023-04-16T07:29:23.503Z,101875.41
2023-04-16T07:31:51.244Z,101865.91
2023-04-16T07:34:19.298Z,101870.94
2023-04-16T07:36:47.413Z,101871.59
2023-04-16T07:39:15.148Z,101879.94
2023-04-16T07:41:45.443Z,101871.16
2023-04-16T07:44:13.178Z,101877.34
2023-04-16T07:46:46.951Z,101879.50
2023-04-16T07:49:15.624Z,101869.91
2023-04-16T07:51:43.571Z,101882.47
2023-04-16T07:54:11.797Z,101888.69
2023-04-16T07:56:39.881Z,101894.13
2023-04-16T07:59:21.857Z,101885.53
2023-04-16T08:01:51.394Z,101891.78
2023-04-16T08:04:24.423Z,101891.75
2023-04-16T08:06:52.977Z,101884.84
2023-04-16T08:09:21.071Z,101897.03
2023-04-16T08:11:50.208Z,101900.31
2023-04-16T08:14:19.857Z,101893.47
2023-04-16T08:16:47.795Z,101910.25
2023-04-16T08:19:15.823Z,101896.63
2023-04-16T08:21:43.688Z,101900.75
2023-04-16T08:24:11.973Z,101903.41
2023-04-16T08:26:39.741Z,101895.75
2023-04-16T08:29:07.689Z,101901.97
2023-04-16T08:31:37.596Z,101909.59
2023-04-16T08:34:05.726Z,101900.06
2023-04-16T08:36:33.475Z,101895.28
2023-04-16T08:39:01.189Z,101902.47
2023-04-16T08:41:32.371Z,101886.44
2023-04-16T08:44:04.001Z,101911.31
2023-04-16T08:46:32.859Z,101907.25
2023-04-16T08:49:04.127Z,101905.63
2023-04-16T08:51:36.079Z,101915.81
2023-04-16T08:54:06.231Z,101927.59
2023-04-16T08:56:38.414Z,101928.72
2023-04-16T08:59:06.482Z,101942.31
2023-04-16T09:01:34.753Z,101936.81
2023-04-16T09:04:04.118Z,101941.50
2023-04-16T09:06:34.077Z,101945.81
2023-04-16T09:09:04.840Z,101945.06
2023-04-16T09:11:33.350Z,101951.47
2023-04-16T09:14:01.826Z,101946.91
2023-04-16T09:16:34.558Z,101959.53
2023-04-16T09:19:03.908Z,101955.31
2023-04-16T09:21:32.233Z,101956.88
2023-04-16T09:24:01.064Z,101969.59
2023-04-16T09:26:29.389Z,101972.81
2023-04-16T09:28:57.215Z,101972.66
2023-04-16T09:31:25.304Z,101983.88
2023-04-16T09:34:05.995Z,101990.16
2023-04-16T09:36:34.700Z,101983.97
2023-04-16T09:39:03.722Z,101999.09
2023-04-16T09:41:35.894Z,101997.56
2023-04-16T09:44:05.525Z,102002.59
2023-04-16T09:46:36.659Z,101995.47
2023-04-16T09:49:10.646Z,102008.78
2023-04-16T09:51:39.810Z,102005.56
2023-04-16T09:54:08.626Z,102004.63
2023-04-16T09:56:42.649Z,102003.13
2023-04-16T09:59:18.663Z,102025.38
2023-04-16T10:01:49.323Z,102017.53
2023-04-16T10:04:22.457Z,102029.00
2023-04-16T10:07:04.453Z,102028.63
2023-04-16T10:09:33.960Z,102037.00
2023-04-16T10:12:02.885Z,102040.41
2023-04-16T10:14:34.959Z,102050.91
2023-04-16T10:17:04.713Z,102038.66
2023-04-16T10:19:35.571Z,102041.91
2023-04-16T10:22:04.744Z,102041.28
2023-04-16T10:24:34.342Z,102046.25
2023-04-16T10:27:03.172Z,102045.00
2023-04-16T10:29:33.241Z,102048.34
2023-04-16T10:32:03.165Z,102064.41
2023-04-16T10:34:35.282Z,102066.72
2023-04-16T10:37:05.276Z,102062.47
2023-04-16T10:39:38.494Z,102071.88
2023-04-16T10:42:11.823Z,102072.66
2023-04-16T10:44:43.633Z,102083.25
2023-04-16T10:47:16.874Z,102083.75
2023-04-16T10:49:45.177Z,102076.31
2023-04-16T10:52:17.517Z,102081.91
2023-04-16T10:54:45.938Z,102080.41
2023-04-16T10:57:18.706Z,102076.78
2023-04-16T11:09:57.506Z,102097.84
2023-04-16T11:12:27.781Z,102105.25
2023-04-16T11:15:00.525Z,102102.25
2023-04-16T11:17:31.072Z,102117.63
2023-04-16T11:19:59.112Z,102122.19
2023-04-16T11:22:28.360Z,102124.66
2023-04-16T11:24:58.286Z,102120.38
2023-04-16T11:27:26.813Z,102118.50
2023-04-16T11:30:04.133Z,102129.00
2023-04-16T11:32:33.159Z,102124.66
2023-04-16T11:35:03.628Z,102130.06
2023-04-16T11:37:35.742Z,102124.66
2023-04-16T11:40:08.136Z,102130.34
2023-04-16T11:42:37.292Z,102124.63
2023-04-16T11:45:06.116Z,102132.25
2023-04-16T11:47:43.109Z,102127.53
2023-04-16T11:50:22.333Z,102147.66
2023-04-16T11:52:51.225Z,102137.38
2023-04-16T11:55:21.260Z,102142.78
2023-04-16T11:57:49.763Z,102140.56
2023-04-16T12:00:23.678Z,102149.00
2023-04-16T12:02:54.328Z,102134.22
2023-04-16T12:05:31.236Z,102140.06
2023-04-16T12:08:00.643Z,102147.38
2023-04-16T12:10:30.968Z,102146.97
2023-04-16T12:13:12.109Z,102144.97
2023-04-16T12:15:47.755Z,102164.66
2023-04-16T12:18:16.161Z,102162.88
2023-04-16T12:20:45.661Z,102157.75
2023-04-16T12:23:24.410Z,102158.75
2023-04-16T12:25:55.182Z,102172.69
2023-04-16T12:28:31.215Z,102162.59
2023-04-16T12:30:59.202Z,102164.00
2023-04-16T12:33:27.382Z,102161.78
2023-04-16T12:35:55.195Z,102168.56
2023-04-16T12:38:24.653Z,102166.13
2023-04-16T12:40:56.699Z,102165.91
2023-04-16T12:43:24.918Z,102167.34
2023-04-16T12:45:52.828Z,102170.72
2023-04-16T12:48:20.687Z,102172.81
2023-04-16T12:50:48.483Z,102174.94
2023-04-16T12:53:16.451Z,102172.69
2023-04-16T12:55:45.301Z,102177.50
2023-04-16T12:58:14.461Z,102177.75
2023-04-16T13:00:42.277Z,102177.91
2023-04-16T13:03:10.341Z,102184.13
2023-04-16T13:05:38.333Z,102186.28
2023-04-16T13:08:06.428Z,102183.66
2023-04-16T13:10:34.270Z,102186.53
2023-04-16T13:13:02.113Z,102180.84
2023-04-16T13:15:31.352Z,102183.72
2023-04-16T13:17:59.260Z,102187.00
2023-04-16T13:20:27.212Z,102194.72
2023-04-16T13:22:55.268Z,102192.50
2023-04-16T13:25:23.221Z,102191.88
2023-04-16T13:27:51.006Z,102183.19
2023-04-16T13:30:19.224Z,102188.72
2023-04-16T13:32:48.452Z,102191.16
2023-04-16T13:35:16.557Z,102188.75
2023-04-16T13:37:44.355Z,102192.25
2023-04-16T13:40:12.284Z,102194.00
2023-04-16T13:42:40.675Z,102188.75
2023-04-16T13:45:09.707Z,102186.91
2023-04-16T13:47:37.730Z,102186.03
2023-04-16T13:50:07.845Z,102187.25
2023-04-16T13:52:36.406Z,102185.00
2023-04-16T13:55:04.529Z,102187.47
2023-04-16T13:57:32.290Z,102189.16
2023-04-16T14:00:00.234Z,102188.44
2023-04-16T14:02:28.704Z,102183.41
2023-04-16T14:04:56.591Z,102180.03
2023-04-16T14:07:27.220Z,102180.47
2023-04-16T14:09:55.374Z,102176.44
2023-04-16T14:12:23.173Z,102184.63
2023-04-16T14:14:51.205Z,102178.66
2023-04-16T14:17:19.038Z,102178.69
2023-04-16T14:19:47.247Z,102183.75
2023-04-16T14:22:17.750Z,102185.78
2023-04-16T14:24:46.954Z,102182.47
2023-04-16T14:27:15.112Z,102177.06
2023-04-16T14:29:43.976Z,102183.31
2023-04-16T14:32:11.743Z,102185.25
2023-04-16T14:34:39.690Z,102184.19
2023-04-16T14:37:08.061Z,102176.34
2023-04-16T14:39:41.697Z,102175.97
2023-04-16T14:42:11.113Z,102181.06
2023-04-16T14:44:39.320Z,102183.88
2023-04-16T14:47:08.587Z,102180.69
2023-04-16T14:49:36.460Z,102181.59
2023-04-16T14:52:05.719Z,102180.13
2023-04-16T14:54:36.504Z,102185.06
2023-04-16T14:57:04.458Z,102176.19
2023-04-16T14:59:33.750Z,102173.72
2023-04-16T15:02:10.456Z,102185.88
2023-04-16T15:04:39.792Z,102178.06
2023-04-16T15:07:12.533Z,102180.81
2023-04-16T15:09:40.584Z,102179.00
2023-04-16T15:12:09.170Z,102182.19
2023-04-16T15:14:38.834Z,102179.22
2023-04-16T15:17:06.892Z,102169.44
2023-04-16T15:19:34.788Z,102176.19
2023-04-16T15:22:02.805Z,102171.72
2023-04-16T15:24:30.821Z,102171.41
2023-04-16T15:27:02.230Z,102173.72
2023-04-16T15:29:32.705Z,102161.28
2023-04-16T15:32:04.344Z,102165.34
2023-04-16T15:34:32.047Z,102169.84
2023-04-16T15:37:09.687Z,102162.38
2023-04-16T15:39:37.499Z,102171.91
2023-04-16T15:42:07.444Z,102159.56
2023-04-16T15:44:36.305Z,102167.91
2023-04-16T15:47:06.448Z,102167.59
2023-04-16T15:49:34.334Z,102171.13
2023-04-16T15:52:02.374Z,102168.84
2023-04-16T15:54:30.541Z,102171.47
2023-04-16T15:56:58.852Z,102168.06
2023-04-16T15:59:26.968Z,102170.13
2023-04-16T16:01:55.026Z,102181.25
2023-04-16T16:04:26.584Z,102184.72
2023-04-16T16:06:56.341Z,102186.88
2023-04-16T16:09:26.764Z,102195.25
2023-04-16T16:11:55.119Z,102201.16
2023-04-16T16:14:23.237Z,102214.19
2023-04-16T16:16:51.153Z,102219.91
2023-04-16T16:19:18.972Z,102218.72
2023-04-16T16:21:48.289Z,102220.56
2023-04-16T16:24:16.319Z,102234.63
2023-04-16T16:26:44.103Z,102233.28
2023-04-16T16:29:12.104Z,102241.88
2023-04-16T16:31:39.904Z,102251.63
2023-04-16T16:34:09.882Z,102258.06
2023-04-16T16:36:40.817Z,102265.53
2023-04-16T16:39:10.661Z,102264.56
2023-04-16T16:41:41.977Z,102270.69
2023-04-16T16:44:10.300Z,102286.69
2023-04-16T16:46:38.524Z,102290.16
2023-04-16T16:49:07.009Z,102291.22
2023-04-16T16:51:35.003Z,102297.13
2023-04-16T16:54:02.837Z,102295.06
2023-04-16T16:56:32.085Z,102295.25
2023-04-16T16:59:00.011Z,102309.09
2023-04-16T17:01:27.926Z,102314.41
2023-04-16T17:03:56.182Z,102322.03
2023-04-16T17:06:25.304Z,102323.53
2023-04-16T17:08:53.215Z,102325.59
2023-04-16T17:11:21.192Z,102330.28
2023-04-16T17:13:50.599Z,102339.94
2023-04-16T17:16:18.731Z,102338.97
2023-04-16T17:18:46.781Z,102349.81
2023-04-16T17:21:16.533Z,102360.28
2023-04-16T17:23:44.780Z,102360.50
2023-04-16T17:26:16.086Z,102369.44
2023-04-16T17:28:43.999Z,102375.59
2023-04-16T17:31:14.951Z,102378.88
2023-04-16T17:33:43.371Z,102375.00
2023-04-16T17:36:11.230Z,102381.69
2023-04-16T17:38:39.083Z,102387.03
2023-04-16T17:41:07.466Z,102381.56
2023-04-16T17:43:35.963Z,102392.84
2023-04-16T17:46:03.807Z,102396.91
2023-04-16T17:48:33.171Z,102394.63
2023-04-16T17:51:01.155Z,102401.09
2023-04-16T17:53:28.986Z,102404.97
2023-04-16T17:55:57.200Z,102406.19
2023-04-16T17:58:26.446Z,102406.41
2023-04-16T18:00:54.298Z,102403.97
2023-04-16T18:03:23.451Z,102410.19
2023-04-16T18:05:53.036Z,102409.53
2023-04-16T18:08:21.068Z,102409.72
2023-04-16T18:10:48.979Z,102407.38
2023-04-16T18:13:16.920Z,102402.09
2023-04-16T18:15:44.873Z,102415.72
2023-04-16T18:18:12.951Z,102414.09
2023-04-16T18:20:41.406Z,102404.69
2023-04-16T18:23:10.531Z,102400.28
2023-04-16T18:28:07.509Z,102402.97
2023-04-16T18:30:35.565Z,102406.59
2023-04-16T18:35:34.172Z,102410.47
2023-04-16T18:38:02.320Z,102408.66
2023-04-16T18:40:35.062Z,102403.38
2023-04-16T18:43:03.006Z,102401.47
2023-04-16T18:45:31.348Z,102409.94
2023-04-16T18:47:59.703Z,102412.47
2023-04-16T18:50:27.576Z,102417.16
2023-04-16T18:52:55.608Z,102420.03
2023-04-16T18:55:23.684Z,102412.63
2023-04-16T18:57:53.150Z,102394.34
2023-04-16T19:00:21.155Z,102394.06
2023-04-16T19:05:34.613Z,102412.34
2023-04-16T19:08:02.389Z,102415.66
2023-04-16T19:10:30.536Z,102422.41
2023-04-16T19:12:59.756Z,102418.44
2023-04-16T19:15:29.218Z,102424.47
2023-04-16T19:17:58.893Z,102425.00
2023-04-16T19:20:27.204Z,102431.66
2023-04-16T19:22:55.494Z,102429.44
2023-04-16T19:25:23.293Z,102433.44
2023-04-16T19:27:51.306Z,102438.53
2023-04-16T19:30:20.680Z,102446.75
2023-04-16T19:32:48.527Z,102448.53
2023-04-16T19:35:16.535Z,102453.19
2023-04-16T19:37:44.365Z,102458.78
2023-04-16T19:40:12.716Z,102457.22
2023-04-16T19:42:40.561Z,102469.19
2023-04-16T19:45:09.941Z,102464.41
2023-04-16T19:47:39.341Z,102471.53
2023-04-16T19:50:08.196Z,102482.47
2023-04-16T19:52:38.764Z,102474.84
2023-04-16T19:55:07.516Z,102478.63
2023-04-16T19:57:35.413Z,102488.63
2023-04-16T20:00:03.735Z,102488.56
2023-04-16T20:02:32.207Z,102485.34
2023-04-16T20:05:03.311Z,102488.75
2023-04-16T20:07:31.106Z,102482.47
2023-04-16T20:09:58.842Z,102484.94
2023-04-16T20:12:26.607Z,102495.09
2023-04-16T20:14:54.502Z,102493.34
2023-04-16T20:17:22.529Z,102500.00
2023-04-16T20:19:51.127Z,102502.97
2023-04-16T20:22:20.408Z,102507.22
2023-04-16T20:24:48.324Z,102513.31
2023-04-16T20:27:16.783Z,102515.69
2023-04-16T20:29:44.985Z,102520.50
2023-04-16T20:32:12.725Z,102515.25
2023-04-16T20:34:40.575Z,102507.88
2023-04-16T20:37:08.326Z,102506.25
2023-04-16T20:39:37.413Z,102503.38
2023-04-16T20:42:10.227Z,102494.53
2023-04-16T20:44:41.196Z,102496.50
2023-04-16T20:47:09.202Z,102492.81
2023-04-16T20:49:38.417Z,102489.28
2023-04-16T20:52:07.428Z,102490.28
2023-04-16T20:54:35.361Z,102501.41
2023-04-16T20:57:05.093Z,102498.03
2023-04-16T20:59:32.966Z,102509.06
2023-04-16T21:02:00.781Z,102514.31
2023-04-16T21:04:28.736Z,102515.28
2023-04-16T21:06:56.699Z,102517.16
2023-04-16T21:09:24.691Z,102522.16
2023-04-16T21:11:52.405Z,102526.72
2023-04-16T21:14:21.797Z,102524.31
2023-04-16T21:16:49.521Z,102531.09
2023-04-16T21:19:17.229Z,102529.06
2023-04-16T21:21:45.502Z,102528.22
2023-04-16T21:24:13.579Z,102529.94
2023-04-16T21:26:41.328Z,102528.06
2023-04-16T21:29:09.192Z,102530.63
2023-04-16T21:31:38.686Z,102540.78
2023-04-16T21:34:06.430Z,102547.13
2023-04-16T21:36:34.092Z,102545.88
2023-04-16T21:39:02.107Z,102546.25
2023-04-16T21:41:30.117Z,102549.75
2023-04-16T21:43:57.836Z,102557.25
2023-04-16T21:46:26.313Z,102549.22
2023-04-16T21:48:55.437Z,102562.97
2023-04-16T21:51:29.228Z,102572.72
2023-04-16T21:53:57.384Z,102570.09
2023-04-16T21:56:25.788Z,102567.38
2023-04-16T21:58:53.620Z,102573.47
2023-04-16T22:01:21.949Z,102576.03
2023-04-16T22:03:51.843Z,102568.00
2023-04-16T22:06:21.714Z,102574.66
2023-04-16T22:08:50.406Z,102574.22
2023-04-16T22:11:18.125Z,102574.56
2023-04-16T22:13:46.386Z,102576.63
2023-04-16T22:16:15.564Z,102577.47
2023-04-16T22:18:43.424Z,102580.28
2023-04-16T22:21:11.401Z,102580.31
2023-04-16T22:23:40.630Z,102584.09
2023-04-16T22:26:09.007Z,102593.69
2023-04-16T22:28:36.920Z,102600.03
2023-04-16T22:31:04.703Z,102592.66
2023-04-16T22:33:32.452Z,102601.09
2023-04-16T22:36:00.882Z,102605.81
2023-04-16T22:38:28.718Z,102602.91
2023-04-16T22:40:57.984Z,102614.34
2023-04-16T22:43:25.731Z,102612.75
2023-04-16T22:46:02.542Z,102607.06
2023-04-16T22:48:30.540Z,102606.00
2023-04-16T22:50:58.460Z,102612.25
2023-04-16T22:53:26.622Z,102614.94
2023-04-16T22:55:55.017Z,102630.13
2023-04-16T22:58:24.221Z,102627.19
2023-04-16T23:00:52.825Z,102627.66
2023-04-16T23:03:20.954Z,102615.91
2023-04-16T23:05:49.493Z,102607.66
2023-04-16T23:08:17.419Z,102606.47
2023-04-16T23:10:45.195Z,102604.97
2023-04-16T23:13:14.277Z,102592.72
2023-04-16T23:15:43.713Z,102585.03
2023-04-16T23:18:11.770Z,102584.22
2023-04-16T23:20:39.726Z,102581.97
2023-04-16T23:23:07.418Z,102571.72
2023-04-16T23:25:35.896Z,102569.72
2023-04-16T23:28:03.781Z,102570.59
2023-04-16T23:30:31.429Z,102576.94
2023-04-16T23:33:00.805Z,102570.50
2023-04-16T23:35:28.890Z,102568.63
2023-04-16T23:37:56.815Z,102565.81
2023-04-16T23:40:24.500Z,102566.03
2023-04-16T23:42:52.455Z,102558.72
2023-04-16T23:45:20.250Z,102562.00
2023-04-16T23:47:48.697Z,102551.81
2023-04-16T23:50:18.230Z,102552.38
2023-04-16T23:52:45.958Z,102544.06
2023-04-16T23:55:13.715Z,102541.31
2023-04-16T23:57:41.615Z,102541.03
